sensor_id;sensor_type;location;lat;lon;timestamp;temperature;humidity
25937;DHT22;13733;51.178;4.450;2023-05-10T00:01:30;14.30;99.90
25937;DHT22;13733;51.178;4.450;2023-05-10T00:03:56;14.20;99.90
25937;DHT22;13733;51.178;4.450;2023-05-10T00:06:22;14.20;99.90
25937;DHT22;13733;51.178;4.450;2023-05-10T00:08:49;14.30;99.90
25937;DHT22;13733;51.178;4.450;2023-05-10T00:11:14;14.40;99.90
25937;DHT22;13733;51.178;4.450;2023-05-10T00:13:40;14.30;99.90
25937;DHT22;13733;51.178;4.450;2023-05-10T00:16:06;14.30;99.90
25937;DHT22;13733;51.178;4.450;2023-05-10T00:18:32;14.30;99.90
25937;DHT22;13733;51.178;4.450;2023-05-10T00:20:58;14.30;99.90
25937;DHT22;13733;51.178;4.450;2023-05-10T00:23:23;14.40;99.90
25937;DHT22;13733;51.178;4.450;2023-05-10T00:25:49;14.30;99.90
25937;DHT22;13733;51.178;4.450;2023-05-10T00:28:17;14.30;99.90
25937;DHT22;13733;51.178;4.450;2023-05-10T00:30:43;14.30;99.90
25937;DHT22;13733;51.178;4.450;2023-05-10T00:33:08;14.40;99.90
25937;DHT22;13733;51.178;4.450;2023-05-10T00:35:34;14.40;99.90
25937;DHT22;13733;51.178;4.450;2023-05-10T00:38:00;14.30;99.90
25937;DHT22;13733;51.178;4.450;2023-05-10T00:40:26;14.20;99.90
25937;DHT22;13733;51.178;4.450;2023-05-10T00:42:57;14.20;99.90
25937;DHT22;13733;51.178;4.450;2023-05-10T00:45:24;14.20;99.90
25937;DHT22;13733;51.178;4.450;2023-05-10T00:47:51;14.40;99.90
25937;DHT22;13733;51.178;4.450;2023-05-10T00:50:21;14.50;99.90
25937;DHT22;13733;51.178;4.450;2023-05-10T00:52:47;14.50;99.90
25937;DHT22;13733;51.178;4.450;2023-05-10T00:55:14;14.60;99.90
25937;DHT22;13733;51.178;4.450;2023-05-10T00:57:40;14.50;99.90
25937;DHT22;13733;51.178;4.450;2023-05-10T01:00:07;14.40;99.90
25937;DHT22;13733;51.178;4.450;2023-05-10T01:02:34;14.30;99.90
25937;DHT22;13733;51.178;4.450;2023-05-10T01:05:01;14.20;99.90
25937;DHT22;13733;51.178;4.450;2023-05-10T01:07:29;14.20;99.90
25937;DHT22;13733;51.178;4.450;2023-05-10T01:09:55;14.20;99.90
25937;DHT22;13733;51.178;4.450;2023-05-10T01:12:22;14.10;99.90
25937;DHT22;13733;51.178;4.450;2023-05-10T01:14:49;14.20;99.90
25937;DHT22;13733;51.178;4.450;2023-05-10T01:17:15;14.10;99.90
25937;DHT22;13733;51.178;4.450;2023-05-10T01:19:41;14.00;99.90
25937;DHT22;13733;51.178;4.450;2023-05-10T01:33:13;14.10;99.90
25937;DHT22;13733;51.178;4.450;2023-05-10T01:35:46;14.00;99.90
25937;DHT22;13733;51.178;4.450;2023-05-10T01:38:22;14.10;99.90
25937;DHT22;13733;51.178;4.450;2023-05-10T01:41:16;14.10;99.90
25937;DHT22;13733;51.178;4.450;2023-05-10T01:46:20;14.20;99.90
25937;DHT22;13733;51.178;4.450;2023-05-10T01:48:52;14.10;99.90
25937;DHT22;13733;51.178;4.450;2023-05-10T01:51:29;14.10;99.90
25937;DHT22;13733;51.178;4.450;2023-05-10T01:54:02;14.20;99.90
25937;DHT22;13733;51.178;4.450;2023-05-10T01:56:32;14.40;99.90
25937;DHT22;13733;51.178;4.450;2023-05-10T01:59:00;14.40;99.90
25937;DHT22;13733;51.178;4.450;2023-05-10T02:01:28;14.40;99.90
25937;DHT22;13733;51.178;4.450;2023-05-10T02:03:55;14.50;99.90
25937;DHT22;13733;51.178;4.450;2023-05-10T02:06:22;14.40;99.90
25937;DHT22;13733;51.178;4.450;2023-05-10T02:08:49;14.50;99.90
25937;DHT22;13733;51.178;4.450;2023-05-10T02:11:17;14.40;99.90
25937;DHT22;13733;51.178;4.450;2023-05-10T02:13:44;14.30;99.90
25937;DHT22;13733;51.178;4.450;2023-05-10T02:16:13;14.30;99.90
25937;DHT22;13733;51.178;4.450;2023-05-10T02:18:40;14.20;99.90
25937;DHT22;13733;51.178;4.450;2023-05-10T02:21:08;14.20;99.90
25937;DHT22;13733;51.178;4.450;2023-05-10T02:23:38;14.40;99.90
25937;DHT22;13733;51.178;4.450;2023-05-10T02:26:05;14.60;99.90
25937;DHT22;13733;51.178;4.450;2023-05-10T02:28:32;14.50;99.90
25937;DHT22;13733;51.178;4.450;2023-05-10T02:30:58;14.30;99.90
25937;DHT22;13733;51.178;4.450;2023-05-10T02:33:24;14.40;99.90
25937;DHT22;13733;51.178;4.450;2023-05-10T02:35:52;14.30;99.90
25937;DHT22;13733;51.178;4.450;2023-05-10T02:38:20;14.30;99.90
25937;DHT22;13733;51.178;4.450;2023-05-10T02:40:47;14.10;99.90
25937;DHT22;13733;51.178;4.450;2023-05-10T02:43:15;14.00;99.90
25937;DHT22;13733;51.178;4.450;2023-05-10T02:45:43;14.00;99.90
25937;DHT22;13733;51.178;4.450;2023-05-10T02:48:11;14.10;99.90
25937;DHT22;13733;51.178;4.450;2023-05-10T02:50:38;14.20;99.90
25937;DHT22;13733;51.178;4.450;2023-05-10T02:53:18;14.10;99.90
25937;DHT22;13733;51.178;4.450;2023-05-10T02:55:49;14.00;99.90
25937;DHT22;13733;51.178;4.450;2023-05-10T02:58:16;14.10;99.90
25937;DHT22;13733;51.178;4.450;2023-05-10T03:00:45;14.10;99.90
25937;DHT22;13733;51.178;4.450;2023-05-10T03:03:11;13.90;99.90
25937;DHT22;13733;51.178;4.450;2023-05-10T03:05:38;13.80;99.90
25937;DHT22;13733;51.178;4.450;2023-05-10T03:08:04;13.80;99.90
25937;DHT22;13733;51.178;4.450;2023-05-10T03:10:31;13.80;99.90
25937;DHT22;13733;51.178;4.450;2023-05-10T03:13:32;13.80;99.90
25937;DHT22;13733;51.178;4.450;2023-05-10T03:16:14;13.70;99.90
25937;DHT22;13733;51.178;4.450;2023-05-10T03:19:01;13.70;99.90
25937;DHT22;13733;51.178;4.450;2023-05-10T03:21:29;13.60;99.90
25937;DHT22;13733;51.178;4.450;2023-05-10T03:24:05;13.60;99.90
25937;DHT22;13733;51.178;4.450;2023-05-10T03:26:33;13.80;99.90
25937;DHT22;13733;51.178;4.450;2023-05-10T03:29:12;13.70;99.90
25937;DHT22;13733;51.178;4.450;2023-05-10T03:31:38;13.70;99.90
25937;DHT22;13733;51.178;4.450;2023-05-10T03:34:04;13.80;99.90
25937;DHT22;13733;51.178;4.450;2023-05-10T03:36:31;13.80;99.90
25937;DHT22;13733;51.178;4.450;2023-05-10T03:38:58;13.80;99.90
25937;DHT22;13733;51.178;4.450;2023-05-10T03:41:24;13.50;99.90
25937;DHT22;13733;51.178;4.450;2023-05-10T03:43:51;13.40;99.90
25937;DHT22;13733;51.178;4.450;2023-05-10T03:46:17;13.30;99.90
25937;DHT22;13733;51.178;4.450;2023-05-10T03:48:43;13.30;99.90
25937;DHT22;13733;51.178;4.450;2023-05-10T03:51:09;13.50;99.90
25937;DHT22;13733;51.178;4.450;2023-05-10T03:53:35;13.50;99.90
25937;DHT22;13733;51.178;4.450;2023-05-10T03:56:01;13.50;99.90
25937;DHT22;13733;51.178;4.450;2023-05-10T03:58:27;13.40;99.90
25937;DHT22;13733;51.178;4.450;2023-05-10T04:00:53;13.40;99.90
25937;DHT22;13733;51.178;4.450;2023-05-10T04:03:19;13.30;99.90
25937;DHT22;13733;51.178;4.450;2023-05-10T04:05:45;13.30;99.90
25937;DHT22;13733;51.178;4.450;2023-05-10T04:08:11;13.30;99.90
25937;DHT22;13733;51.178;4.450;2023-05-10T04:10:37;13.40;99.90
25937;DHT22;13733;51.178;4.450;2023-05-10T04:13:03;13.50;99.90
25937;DHT22;13733;51.178;4.450;2023-05-10T04:15:29;13.80;99.90
25937;DHT22;13733;51.178;4.450;2023-05-10T04:17:54;13.70;99.90
25937;DHT22;13733;51.178;4.450;2023-05-10T04:20:21;13.60;99.90
25937;DHT22;13733;51.178;4.450;2023-05-10T04:22:47;13.70;99.90
25937;DHT22;13733;51.178;4.450;2023-05-10T04:25:13;13.80;99.90
25937;DHT22;13733;51.178;4.450;2023-05-10T04:27:38;13.60;99.90
25937;DHT22;13733;51.178;4.450;2023-05-10T04:30:05;13.50;99.90
25937;DHT22;13733;51.178;4.450;2023-05-10T04:32:30;13.70;99.90
25937;DHT22;13733;51.178;4.450;2023-05-10T04:34:56;13.90;99.90
25937;DHT22;13733;51.178;4.450;2023-05-10T04:37:22;13.90;99.90
25937;DHT22;13733;51.178;4.450;2023-05-10T04:39:49;13.80;99.90
25937;DHT22;13733;51.178;4.450;2023-05-10T04:42:15;13.80;99.90
25937;DHT22;13733;51.178;4.450;2023-05-10T04:44:41;13.70;99.90
25937;DHT22;13733;51.178;4.450;2023-05-10T04:47:07;13.80;99.90
25937;DHT22;13733;51.178;4.450;2023-05-10T04:49:33;13.80;99.90
25937;DHT22;13733;51.178;4.450;2023-05-10T04:52:00;13.70;99.90
25937;DHT22;13733;51.178;4.450;2023-05-10T04:54:26;13.60;99.90
25937;DHT22;13733;51.178;4.450;2023-05-10T04:56:52;13.70;99.90
25937;DHT22;13733;51.178;4.450;2023-05-10T04:59:18;13.70;99.90
25937;DHT22;13733;51.178;4.450;2023-05-10T05:01:46;13.70;99.90
25937;DHT22;13733;51.178;4.450;2023-05-10T05:04:13;13.70;99.90
25937;DHT22;13733;51.178;4.450;2023-05-10T05:06:40;13.70;99.90
25937;DHT22;13733;51.178;4.450;2023-05-10T05:09:06;13.70;99.90
25937;DHT22;13733;51.178;4.450;2023-05-10T05:11:32;13.70;99.90
25937;DHT22;13733;51.178;4.450;2023-05-10T05:13:58;13.90;99.90
25937;DHT22;13733;51.178;4.450;2023-05-10T05:16:26;14.00;99.90
25937;DHT22;13733;51.178;4.450;2023-05-10T05:18:53;14.20;99.90
25937;DHT22;13733;51.178;4.450;2023-05-10T05:21:19;14.30;99.90
25937;DHT22;13733;51.178;4.450;2023-05-10T05:23:46;14.30;99.90
25937;DHT22;13733;51.178;4.450;2023-05-10T05:26:12;14.20;99.90
25937;DHT22;13733;51.178;4.450;2023-05-10T05:28:37;14.30;99.90
25937;DHT22;13733;51.178;4.450;2023-05-10T05:31:07;14.40;99.90
25937;DHT22;13733;51.178;4.450;2023-05-10T05:33:33;14.50;99.90
25937;DHT22;13733;51.178;4.450;2023-05-10T05:36:04;14.40;99.90
25937;DHT22;13733;51.178;4.450;2023-05-10T05:38:30;14.50;99.90
25937;DHT22;13733;51.178;4.450;2023-05-10T05:40:56;14.40;99.90
25937;DHT22;13733;51.178;4.450;2023-05-10T05:43:22;14.50;99.90
25937;DHT22;13733;51.178;4.450;2023-05-10T05:45:47;14.60;99.90
25937;DHT22;13733;51.178;4.450;2023-05-10T05:48:14;14.70;99.90
25937;DHT22;13733;51.178;4.450;2023-05-10T05:50:40;15.00;99.90
25937;DHT22;13733;51.178;4.450;2023-05-10T05:53:06;14.90;99.90
25937;DHT22;13733;51.178;4.450;2023-05-10T05:55:32;15.00;99.90
25937;DHT22;13733;51.178;4.450;2023-05-10T05:57:58;14.80;99.90
25937;DHT22;13733;51.178;4.450;2023-05-10T06:00:24;14.60;99.90
25937;DHT22;13733;51.178;4.450;2023-05-10T06:02:50;14.60;99.90
25937;DHT22;13733;51.178;4.450;2023-05-10T06:05:15;14.80;99.90
25937;DHT22;13733;51.178;4.450;2023-05-10T06:07:41;14.70;99.90
25937;DHT22;13733;51.178;4.450;2023-05-10T06:10:08;14.80;99.90
25937;DHT22;13733;51.178;4.450;2023-05-10T06:12:34;14.90;99.90
25937;DHT22;13733;51.178;4.450;2023-05-10T06:15:00;15.00;99.90
25937;DHT22;13733;51.178;4.450;2023-05-10T06:17:26;15.10;99.90
25937;DHT22;13733;51.178;4.450;2023-05-10T06:19:52;15.20;99.90
25937;DHT22;13733;51.178;4.450;2023-05-10T06:22:18;15.30;99.90
25937;DHT22;13733;51.178;4.450;2023-05-10T06:24:44;15.20;99.90
25937;DHT22;13733;51.178;4.450;2023-05-10T06:27:10;15.20;99.90
25937;DHT22;13733;51.178;4.450;2023-05-10T06:29:36;15.30;99.90
25937;DHT22;13733;51.178;4.450;2023-05-10T06:32:01;15.30;99.90
25937;DHT22;13733;51.178;4.450;2023-05-10T06:34:27;15.30;99.90
25937;DHT22;13733;51.178;4.450;2023-05-10T06:36:53;15.30;99.90
25937;DHT22;13733;51.178;4.450;2023-05-10T06:39:19;15.20;99.90
25937;DHT22;13733;51.178;4.450;2023-05-10T06:41:45;15.30;99.90
25937;DHT22;13733;51.178;4.450;2023-05-10T06:44:11;15.50;99.90
25937;DHT22;13733;51.178;4.450;2023-05-10T06:46:37;15.60;99.90
25937;DHT22;13733;51.178;4.450;2023-05-10T06:49:03;15.50;99.90
25937;DHT22;13733;51.178;4.450;2023-05-10T06:51:30;15.70;99.90
25937;DHT22;13733;51.178;4.450;2023-05-10T06:53:58;15.70;99.90
25937;DHT22;13733;51.178;4.450;2023-05-10T06:56:24;15.80;99.90
25937;DHT22;13733;51.178;4.450;2023-05-10T06:58:49;15.80;99.90
25937;DHT22;13733;51.178;4.450;2023-05-10T07:01:15;15.80;99.90
25937;DHT22;13733;51.178;4.450;2023-05-10T07:03:41;15.70;99.90
25937;DHT22;13733;51.178;4.450;2023-05-10T07:06:07;15.70;99.90
25937;DHT22;13733;51.178;4.450;2023-05-10T07:08:36;15.70;99.90
25937;DHT22;13733;51.178;4.450;2023-05-10T07:11:03;15.70;99.90
25937;DHT22;13733;51.178;4.450;2023-05-10T07:13:33;15.90;99.90
25937;DHT22;13733;51.178;4.450;2023-05-10T07:16:00;15.80;99.90
25937;DHT22;13733;51.178;4.450;2023-05-10T07:18:28;15.90;99.90
25937;DHT22;13733;51.178;4.450;2023-05-10T07:20:54;15.90;99.90
25937;DHT22;13733;51.178;4.450;2023-05-10T07:23:21;15.70;99.90
25937;DHT22;13733;51.178;4.450;2023-05-10T07:25:48;15.50;99.90
25937;DHT22;13733;51.178;4.450;2023-05-10T07:28:15;15.50;99.90
25937;DHT22;13733;51.178;4.450;2023-05-10T07:30:42;15.80;99.90
25937;DHT22;13733;51.178;4.450;2023-05-10T07:33:09;15.90;99.90
25937;DHT22;13733;51.178;4.450;2023-05-10T07:35:35;15.90;99.90
25937;DHT22;13733;51.178;4.450;2023-05-10T07:38:01;16.00;99.90
25937;DHT22;13733;51.178;4.450;2023-05-10T07:40:28;16.20;99.90
25937;DHT22;13733;51.178;4.450;2023-05-10T07:42:54;16.50;99.90
25937;DHT22;13733;51.178;4.450;2023-05-10T07:45:20;16.60;99.90
25937;DHT22;13733;51.178;4.450;2023-05-10T07:47:46;16.60;99.90
25937;DHT22;13733;51.178;4.450;2023-05-10T07:50:12;16.50;99.90
25937;DHT22;13733;51.178;4.450;2023-05-10T07:52:39;16.20;99.90
25937;DHT22;13733;51.178;4.450;2023-05-10T07:55:05;16.00;99.90
25937;DHT22;13733;51.178;4.450;2023-05-10T07:57:33;16.10;99.90
25937;DHT22;13733;51.178;4.450;2023-05-10T08:00:00;16.30;99.90
25937;DHT22;13733;51.178;4.450;2023-05-10T08:02:25;16.40;99.90
25937;DHT22;13733;51.178;4.450;2023-05-10T08:04:51;16.60;99.90
25937;DHT22;13733;51.178;4.450;2023-05-10T08:07:18;16.60;99.90
25937;DHT22;13733;51.178;4.450;2023-05-10T08:09:44;16.50;99.90
25937;DHT22;13733;51.178;4.450;2023-05-10T08:12:10;16.60;99.90
25937;DHT22;13733;51.178;4.450;2023-05-10T08:14:36;17.00;99.90
25937;DHT22;13733;51.178;4.450;2023-05-10T08:17:04;17.30;99.90
25937;DHT22;13733;51.178;4.450;2023-05-10T08:19:30;17.40;99.90
25937;DHT22;13733;51.178;4.450;2023-05-10T08:21:56;17.60;99.90
25937;DHT22;13733;51.178;4.450;2023-05-10T08:24:22;17.50;99.90
25937;DHT22;13733;51.178;4.450;2023-05-10T08:26:48;17.60;99.90
25937;DHT22;13733;51.178;4.450;2023-05-10T08:29:14;17.70;99.90
25937;DHT22;13733;51.178;4.450;2023-05-10T08:31:41;17.80;99.90
25937;DHT22;13733;51.178;4.450;2023-05-10T08:34:07;17.80;99.90
25937;DHT22;13733;51.178;4.450;2023-05-10T08:36:33;17.80;99.90
25937;DHT22;13733;51.178;4.450;2023-05-10T08:38:59;18.00;99.90
25937;DHT22;13733;51.178;4.450;2023-05-10T08:41:25;17.90;99.90
25937;DHT22;13733;51.178;4.450;2023-05-10T08:43:54;18.20;99.90
25937;DHT22;13733;51.178;4.450;2023-05-10T08:46:21;18.10;99.90
25937;DHT22;13733;51.178;4.450;2023-05-10T08:48:49;18.20;99.90
25937;DHT22;13733;51.178;4.450;2023-05-10T08:51:19;18.20;99.90
25937;DHT22;13733;51.178;4.450;2023-05-10T08:53:45;18.40;99.90
25937;DHT22;13733;51.178;4.450;2023-05-10T08:56:11;18.40;99.90
25937;DHT22;13733;51.178;4.450;2023-05-10T08:58:39;17.90;99.90
25937;DHT22;13733;51.178;4.450;2023-05-10T09:01:05;17.60;99.90
25937;DHT22;13733;51.178;4.450;2023-05-10T09:03:31;17.50;99.90
25937;DHT22;13733;51.178;4.450;2023-05-10T09:05:58;17.50;99.90
25937;DHT22;13733;51.178;4.450;2023-05-10T09:08:24;17.40;99.90
25937;DHT22;13733;51.178;4.450;2023-05-10T09:10:56;17.40;99.90
25937;DHT22;13733;51.178;4.450;2023-05-10T09:13:23;17.50;99.90
25937;DHT22;13733;51.178;4.450;2023-05-10T09:15:49;17.80;99.90
25937;DHT22;13733;51.178;4.450;2023-05-10T09:18:16;18.00;99.90
25937;DHT22;13733;51.178;4.450;2023-05-10T09:20:42;18.10;99.90
25937;DHT22;13733;51.178;4.450;2023-05-10T09:23:07;17.60;99.90
25937;DHT22;13733;51.178;4.450;2023-05-10T09:25:34;17.40;99.90
25937;DHT22;13733;51.178;4.450;2023-05-10T09:28:00;17.20;99.90
25937;DHT22;13733;51.178;4.450;2023-05-10T09:30:28;17.10;99.90
25937;DHT22;13733;51.178;4.450;2023-05-10T09:32:56;17.00;99.90
25937;DHT22;13733;51.178;4.450;2023-05-10T09:35:25;16.80;99.90
25937;DHT22;13733;51.178;4.450;2023-05-10T09:37:53;16.80;99.90
25937;DHT22;13733;51.178;4.450;2023-05-10T09:40:25;16.80;99.90
25937;DHT22;13733;51.178;4.450;2023-05-10T09:43:01;16.90;99.90
25937;DHT22;13733;51.178;4.450;2023-05-10T09:45:35;16.80;99.90
25937;DHT22;13733;51.178;4.450;2023-05-10T09:48:02;16.90;99.90
25937;DHT22;13733;51.178;4.450;2023-05-10T09:50:29;16.80;99.90
25937;DHT22;13733;51.178;4.450;2023-05-10T09:53:02;17.00;99.90
25937;DHT22;13733;51.178;4.450;2023-05-10T09:58:07;17.30;99.90
25937;DHT22;13733;51.178;4.450;2023-05-10T10:00:40;17.10;99.90
25937;DHT22;13733;51.178;4.450;2023-05-10T10:03:15;16.70;99.90
25937;DHT22;13733;51.178;4.450;2023-05-10T10:05:42;16.50;99.90
25937;DHT22;13733;51.178;4.450;2023-05-10T10:08:09;16.60;99.90
25937;DHT22;13733;51.178;4.450;2023-05-10T10:10:35;16.90;99.90
25937;DHT22;13733;51.178;4.450;2023-05-10T10:13:02;16.90;99.90
25937;DHT22;13733;51.178;4.450;2023-05-10T10:15:28;17.40;99.90
25937;DHT22;13733;51.178;4.450;2023-05-10T10:17:54;17.60;99.90
25937;DHT22;13733;51.178;4.450;2023-05-10T10:20:21;18.40;99.90
25937;DHT22;13733;51.178;4.450;2023-05-10T10:22:48;19.00;99.90
25937;DHT22;13733;51.178;4.450;2023-05-10T10:25:17;19.10;99.90
25937;DHT22;13733;51.178;4.450;2023-05-10T10:36:13;18.60;99.90
25937;DHT22;13733;51.178;4.450;2023-05-10T10:41:37;18.60;99.90
25937;DHT22;13733;51.178;4.450;2023-05-10T10:49:33;18.90;99.90
25937;DHT22;13733;51.178;4.450;2023-05-10T10:52:22;19.10;99.90
25937;DHT22;13733;51.178;4.450;2023-05-10T10:55:08;18.90;99.90
25937;DHT22;13733;51.178;4.450;2023-05-10T11:00:29;18.30;99.90
25937;DHT22;13733;51.178;4.450;2023-05-10T11:03:04;17.90;99.90
25937;DHT22;13733;51.178;4.450;2023-05-10T11:05:42;17.70;99.90
25937;DHT22;13733;51.178;4.450;2023-05-10T11:08:17;17.40;99.90
25937;DHT22;13733;51.178;4.450;2023-05-10T11:13:37;17.00;99.90
25937;DHT22;13733;51.178;4.450;2023-05-10T11:19:02;16.90;99.90
25937;DHT22;13733;51.178;4.450;2023-05-10T11:21:33;16.70;99.90
25937;DHT22;13733;51.178;4.450;2023-05-10T11:24:00;16.40;99.90
25937;DHT22;13733;51.178;4.450;2023-05-10T11:26:30;16.40;99.90
25937;DHT22;13733;51.178;4.450;2023-05-10T11:28:57;16.40;99.90
25937;DHT22;13733;51.178;4.450;2023-05-10T11:31:24;16.30;99.90
25937;DHT22;13733;51.178;4.450;2023-05-10T11:33:57;16.20;99.90
25937;DHT22;13733;51.178;4.450;2023-05-10T11:36:25;16.00;99.90
25937;DHT22;13733;51.178;4.450;2023-05-10T11:38:51;16.00;99.90
25937;DHT22;13733;51.178;4.450;2023-05-10T11:41:19;16.10;99.90
25937;DHT22;13733;51.178;4.450;2023-05-10T11:43:54;16.00;99.90
25937;DHT22;13733;51.178;4.450;2023-05-10T11:46:21;16.10;99.90
25937;DHT22;13733;51.178;4.450;2023-05-10T11:48:53;16.00;99.90
25937;DHT22;13733;51.178;4.450;2023-05-10T11:51:23;16.10;99.90
25937;DHT22;13733;51.178;4.450;2023-05-10T11:53:52;16.20;99.90
25937;DHT22;13733;51.178;4.450;2023-05-10T11:56:18;16.10;99.90
25937;DHT22;13733;51.178;4.450;2023-05-10T11:58:44;16.20;99.90
25937;DHT22;13733;51.178;4.450;2023-05-10T12:01:12;16.30;99.90
25937;DHT22;13733;51.178;4.450;2023-05-10T12:03:38;16.30;99.90
25937;DHT22;13733;51.178;4.450;2023-05-10T12:06:06;16.50;99.90
25937;DHT22;13733;51.178;4.450;2023-05-10T12:08:33;16.60;99.90
25937;DHT22;13733;51.178;4.450;2023-05-10T12:11:07;16.70;99.90
25937;DHT22;13733;51.178;4.450;2023-05-10T12:13:38;17.00;99.90
25937;DHT22;13733;51.178;4.450;2023-05-10T12:16:19;17.10;99.90
25937;DHT22;13733;51.178;4.450;2023-05-10T12:18:49;17.20;99.90
25937;DHT22;13733;51.178;4.450;2023-05-10T12:21:16;17.20;99.90
25937;DHT22;13733;51.178;4.450;2023-05-10T12:23:44;16.90;99.90
25937;DHT22;13733;51.178;4.450;2023-05-10T12:26:10;17.00;99.90
25937;DHT22;13733;51.178;4.450;2023-05-10T12:28:37;17.20;99.90
25937;DHT22;13733;51.178;4.450;2023-05-10T12:31:28;17.40;99.90
25937;DHT22;13733;51.178;4.450;2023-05-10T12:33:54;17.50;99.90
25937;DHT22;13733;51.178;4.450;2023-05-10T12:36:23;17.60;99.90
25937;DHT22;13733;51.178;4.450;2023-05-10T12:38:49;17.60;99.90
25937;DHT22;13733;51.178;4.450;2023-05-10T12:41:16;17.90;99.90
25937;DHT22;13733;51.178;4.450;2023-05-10T12:43:43;18.00;99.90
25937;DHT22;13733;51.178;4.450;2023-05-10T12:46:11;17.90;99.90
25937;DHT22;13733;51.178;4.450;2023-05-10T12:48:38;18.00;99.90
25937;DHT22;13733;51.178;4.450;2023-05-10T12:51:05;17.90;99.90
25937;DHT22;13733;51.178;4.450;2023-05-10T12:53:35;17.70;99.90
25937;DHT22;13733;51.178;4.450;2023-05-10T12:56:01;18.10;99.90
25937;DHT22;13733;51.178;4.450;2023-05-10T12:58:27;18.30;99.90
25937;DHT22;13733;51.178;4.450;2023-05-10T13:00:53;18.20;99.90
25937;DHT22;13733;51.178;4.450;2023-05-10T13:03:19;18.30;99.90
25937;DHT22;13733;51.178;4.450;2023-05-10T13:05:45;18.20;99.90
25937;DHT22;13733;51.178;4.450;2023-05-10T13:08:11;18.10;99.90
25937;DHT22;13733;51.178;4.450;2023-05-10T13:10:37;17.80;99.90
25937;DHT22;13733;51.178;4.450;2023-05-10T13:13:02;17.90;99.90
25937;DHT22;13733;51.178;4.450;2023-05-10T13:15:28;18.00;99.90
25937;DHT22;13733;51.178;4.450;2023-05-10T13:17:54;17.80;99.90
25937;DHT22;13733;51.178;4.450;2023-05-10T13:20:20;17.80;99.90
25937;DHT22;13733;51.178;4.450;2023-05-10T13:22:49;17.90;99.90
25937;DHT22;13733;51.178;4.450;2023-05-10T13:25:15;17.70;99.90
25937;DHT22;13733;51.178;4.450;2023-05-10T13:27:41;17.60;99.90
25937;DHT22;13733;51.178;4.450;2023-05-10T13:30:08;17.50;99.90
25937;DHT22;13733;51.178;4.450;2023-05-10T13:32:34;17.60;99.90
25937;DHT22;13733;51.178;4.450;2023-05-10T13:35:00;17.40;99.90
25937;DHT22;13733;51.178;4.450;2023-05-10T13:37:25;17.50;99.90
25937;DHT22;13733;51.178;4.450;2023-05-10T13:39:51;17.60;99.90
25937;DHT22;13733;51.178;4.450;2023-05-10T13:42:18;17.70;99.90
25937;DHT22;13733;51.178;4.450;2023-05-10T13:44:44;17.50;99.90
25937;DHT22;13733;51.178;4.450;2023-05-10T13:47:09;17.40;99.90
25937;DHT22;13733;51.178;4.450;2023-05-10T13:49:36;17.30;99.90
25937;DHT22;13733;51.178;4.450;2023-05-10T13:52:01;17.10;99.90
25937;DHT22;13733;51.178;4.450;2023-05-10T13:54:33;17.00;99.90
25937;DHT22;13733;51.178;4.450;2023-05-10T13:56:59;16.90;99.90
25937;DHT22;13733;51.178;4.450;2023-05-10T13:59:28;16.80;99.90
25937;DHT22;13733;51.178;4.450;2023-05-10T14:01:56;16.70;99.90
25937;DHT22;13733;51.178;4.450;2023-05-10T14:04:22;16.60;99.90
25937;DHT22;13733;51.178;4.450;2023-05-10T14:06:49;16.50;99.90
25937;DHT22;13733;51.178;4.450;2023-05-10T14:09:15;16.40;99.90
25937;DHT22;13733;51.178;4.450;2023-05-10T14:11:41;16.40;99.90
25937;DHT22;13733;51.178;4.450;2023-05-10T14:14:12;16.60;99.90
25937;DHT22;13733;51.178;4.450;2023-05-10T14:16:42;16.60;99.90
25937;DHT22;13733;51.178;4.450;2023-05-10T14:19:09;16.70;99.90
25937;DHT22;13733;51.178;4.450;2023-05-10T14:21:35;16.60;99.90
25937;DHT22;13733;51.178;4.450;2023-05-10T14:24:00;16.60;99.90
25937;DHT22;13733;51.178;4.450;2023-05-10T14:26:26;16.90;99.90
25937;DHT22;13733;51.178;4.450;2023-05-10T14:28:53;16.80;99.90
25937;DHT22;13733;51.178;4.450;2023-05-10T14:31:19;17.10;99.90
25937;DHT22;13733;51.178;4.450;2023-05-10T14:33:46;17.40;99.90
25937;DHT22;13733;51.178;4.450;2023-05-10T14:36:13;17.60;99.90
25937;DHT22;13733;51.178;4.450;2023-05-10T14:38:40;17.80;99.90
25937;DHT22;13733;51.178;4.450;2023-05-10T14:41:06;18.10;99.90
25937;DHT22;13733;51.178;4.450;2023-05-10T14:43:32;18.20;99.90
25937;DHT22;13733;51.178;4.450;2023-05-10T14:45:58;18.30;99.90
25937;DHT22;13733;51.178;4.450;2023-05-10T14:48:23;18.30;99.90
25937;DHT22;13733;51.178;4.450;2023-05-10T14:50:49;18.60;99.90
25937;DHT22;13733;51.178;4.450;2023-05-10T14:53:16;18.90;99.90
25937;DHT22;13733;51.178;4.450;2023-05-10T14:55:42;18.90;99.90
25937;DHT22;13733;51.178;4.450;2023-05-10T14:58:07;18.70;99.90
25937;DHT22;13733;51.178;4.450;2023-05-10T15:00:33;18.50;99.90
25937;DHT22;13733;51.178;4.450;2023-05-10T15:02:59;18.30;99.90
25937;DHT22;13733;51.178;4.450;2023-05-10T15:05:26;17.90;99.90
25937;DHT22;13733;51.178;4.450;2023-05-10T15:07:52;17.50;99.90
25937;DHT22;13733;51.178;4.450;2023-05-10T15:10:18;16.70;99.90
25937;DHT22;13733;51.178;4.450;2023-05-10T15:12:44;16.30;99.90
25937;DHT22;13733;51.178;4.450;2023-05-10T15:15:10;16.00;99.90
25937;DHT22;13733;51.178;4.450;2023-05-10T15:17:35;15.50;99.90
25937;DHT22;13733;51.178;4.450;2023-05-10T15:20:02;15.10;99.90
25937;DHT22;13733;51.178;4.450;2023-05-10T15:22:29;14.90;99.90
25937;DHT22;13733;51.178;4.450;2023-05-10T15:24:58;15.00;99.90
25937;DHT22;13733;51.178;4.450;2023-05-10T15:27:25;15.00;99.90
25937;DHT22;13733;51.178;4.450;2023-05-10T15:29:51;15.00;99.90
25937;DHT22;13733;51.178;4.450;2023-05-10T15:32:17;15.00;99.90
25937;DHT22;13733;51.178;4.450;2023-05-10T15:34:43;14.80;99.90
25937;DHT22;13733;51.178;4.450;2023-05-10T15:37:09;14.60;99.90
25937;DHT22;13733;51.178;4.450;2023-05-10T15:39:35;14.60;99.90
25937;DHT22;13733;51.178;4.450;2023-05-10T15:42:01;14.80;99.90
25937;DHT22;13733;51.178;4.450;2023-05-10T15:44:28;15.00;99.90
25937;DHT22;13733;51.178;4.450;2023-05-10T15:46:54;15.00;99.90
25937;DHT22;13733;51.178;4.450;2023-05-10T15:49:20;15.00;99.90
25937;DHT22;13733;51.178;4.450;2023-05-10T15:51:45;15.00;99.90
25937;DHT22;13733;51.178;4.450;2023-05-10T15:54:11;15.10;99.90
25937;DHT22;13733;51.178;4.450;2023-05-10T15:56:37;15.20;99.90
25937;DHT22;13733;51.178;4.450;2023-05-10T15:59:03;15.40;99.90
25937;DHT22;13733;51.178;4.450;2023-05-10T16:01:30;15.70;99.90
25937;DHT22;13733;51.178;4.450;2023-05-10T16:03:58;15.70;99.90
25937;DHT22;13733;51.178;4.450;2023-05-10T16:06:25;15.50;99.90
25937;DHT22;13733;51.178;4.450;2023-05-10T16:08:51;15.60;99.90
25937;DHT22;13733;51.178;4.450;2023-05-10T16:11:17;15.70;99.90
25937;DHT22;13733;51.178;4.450;2023-05-10T16:13:42;15.70;99.90